Fort Chipewyan, Canada
Current Conditions -  °F | °C
As of 1:00 PM on Friday 31 Oct 2014 (Local Time) from CYPY Reporting Station
Overcast Overcast  
Wind Chill: -1°   Ceiling: 1900
Heat Index:   Visibility: 9mi
Dew Point:   Wind: 7mph
Humidity: 93%   Direction: 180°S
Pressure: 29.62"   Gusts: NA
Location:  58.71°N, 111.15°W
Report Text: CYPY 311900Z AUTO 18006KT 130V220 9SM OVC019 02/01 A2962 RMK SLP044
Loading
Personal Weather Stations






























Interactive Weather Map
Tropical Storm Tracking
New forecast layout! Learn more

10-Day Weather Forecast

Advertisements
Track Severe Weather on mobile